Britney Lee — WDC2895 — position and weather

sailwx.info

Track history (hours):
 
Tides and Currents Weather Stations Pressure Air Temp Water Temp Dewpoint Dewpoint Depression Visibility Wind Speed Wind Dir Waves Ship Positions

Britney Lee

Owner: Western Rivers Boat Management, Inc., Paducah, KY. More information available from US FCC via Universal Licensing System and Coast Guard Vessel Documentation Center.

Last reported at 2018-Feb-10 02:14 UTC. Time now 2018-Feb-20 04:23 UTC.
Position N 39°16' W 090°37'.
Warning: this ship's position is 10 days out of date.

Length 44 m; draft 3 m.

Type: Tow > 200 m length. MMSI: 367129650.

Date/timePositionNaut miles runAvg speedWind from/ knotsBaromVisibWave heightAir tempDewpointWater temp
2018-Feb-10 02:14N 39°16' W 090°37'4 3.7
2018-Feb-10 01:06N 39°12' W 090°36'1 3.6
2018-Feb-10 00:52N 39°11' W 090°36'3 4.0
2018-Feb-10 00:14N 39°08' W 090°37'1 4.2
2018-Feb-09 23:59N 39°07' W 090°36'2 4.1
2018-Feb-09 23:29N 39°05' W 090°36'3 3.7
2018-Feb-09 22:45N 39°03' W 090°35'3 4.0
2018-Feb-09 22:00N 38°60' W 090°34'2 2.0
2018-Feb-09 21:00N 38°58' W 090°33'0 0.1
2018-Feb-09 20:00N 38°58' W 090°33'6 3.8
2018-Feb-09 18:30N 38°58' W 090°25'5 4.7
2018-Feb-09 17:30N 38°56' W 090°20'2 4.8
2018-Feb-09 17:00N 38°55' W 090°17'2 4.7
2018-Feb-09 16:30N 38°55' W 090°14'5 4.6
2018-Feb-09 15:30N 38°52' W 090°09'0 0.1
2018-Feb-09 14:30N 38°52' W 090°09'0 0.2
2018-Feb-09 14:00N 38°52' W 090°09'0 0.0
2018-Feb-09 12:30N 38°52' W 090°09'0 0.1
2018-Feb-09 12:00N 38°52' W 090°09'0 0.3
2018-Feb-09 11:30N 38°52' W 090°09'0 0.4
2018-Feb-09 11:00N 38°52' W 090°09'0 0.1
2018-Feb-09 10:30N 38°52' W 090°09'0 0.1
2018-Feb-09 08:00N 38°52' W 090°09'0 0.2
2018-Feb-09 07:30N 38°52' W 090°09'0 0.0
2018-Feb-09 07:00N 38°52' W 090°09'0 0.0
2018-Feb-09 06:30N 38°52' W 090°09'0 0.0
2018-Feb-09 03:30N 38°52' W 090°09'0 0.2
2018-Feb-09 02:30N 38°52' W 090°09'0 0.2
2018-Feb-09 01:30N 38°52' W 090°09'0 0.1
2018-Feb-09 01:00N 38°52' W 090°09'1 1.4
2018-Feb-09 00:00N 38°51' W 090°07'2 3.1
2018-Feb-08 23:30N 38°50' W 090°07'0 0.9
2018-Feb-08 23:00N 38°49' W 090°07'14 2.1
2018-Feb-08 16:00N 38°36' W 090°12'0 0.0
2018-Feb-08 15:00N 38°36' W 090°12'4 0.6
2018-Feb-08 08:30N 38°33' W 090°15'  
2018-Feb-05 18:34N 38°31' W 090°16'5 2.8
2018-Feb-05 16:42N 38°35' W 090°12'0 0.1
2018-Feb-05 16:24N 38°35' W 090°12'0 0.1
2018-Feb-05 15:06N 38°36' W 090°12'0 0.1
2018-Feb-05 14:58N 38°36' W 090°12'0 0.6
2018-Feb-05 14:29N 38°36' W 090°12'6 3.9
2018-Feb-05 12:51N 38°42' W 090°11'0 0.6
2018-Feb-05 12:00N 38°43' W 090°11'1 1.1
2018-Feb-05 11:30N 38°43' W 090°10'2 2.3
2018-Feb-05 10:28N 38°45' W 090°09'6 3.8
2018-Feb-05 08:59N 38°50' W 090°06'2 4.5
2018-Feb-05 08:30N 38°52' W 090°08'0 0.8
2018-Feb-05 08:00N 38°52' W 090°09'0 0.3
2018-Feb-05 07:30N 38°52' W 090°09'0 0.2
2018-Feb-05 07:00N 38°52' W 090°09'0 0.0
2018-Feb-05 06:30N 38°52' W 090°09'1 0.8
2018-Feb-05 05:30N 38°53' W 090°10'2 3.1
2018-Feb-05 05:00N 38°53' W 090°12'1 2.9
2018-Feb-05 04:30N 38°54' W 090°13'0 0.1
2018-Feb-05 04:00N 38°54' W 090°13'0 0.1
2018-Feb-05 03:30N 38°55' W 090°13'0 0.1
2018-Feb-05 03:00N 38°55' W 090°13'0 0.0
2018-Feb-05 02:30N 38°55' W 090°13'0 0.0
2018-Feb-05 02:00N 38°55' W 090°13'0 0.0
2018-Feb-05 01:30N 38°55' W 090°13'0 0.2
2018-Feb-05 01:00N 38°55' W 090°13'1 3.0
2018-Feb-05 00:30N 38°55' W 090°15'3 5.0
2018-Feb-05 00:00N 38°55' W 090°18'3 5.0
2018-Feb-04 23:30N 38°57' W 090°21'3 5.3
2018-Feb-04 23:00N 38°58' W 090°24'3 5.4
2018-Feb-04 22:30N 38°58' W 090°27'2 4.6
2018-Feb-04 22:00N 38°58' W 090°30'2 4.0
2018-Feb-04 21:30N 38°58' W 090°33'2 4.9
2018-Feb-04 21:00N 39°00' W 090°34'5 4.2
2018-Feb-04 19:56N 39°05' W 090°35'2 5.0
2018-Feb-04 19:29N 39°07' W 090°36'  
Track history (hours):
 
Tides and Currents Weather Stations Pressure Air Temp Water Temp Dewpoint Dewpoint Depression Visibility Wind Speed Wind Dir Waves Ship Positions

Britney Lee

Owner: Western Rivers Boat Management, Inc., Paducah, KY. More information available from US FCC via Universal Licensing System and Coast Guard Vessel Documentation Center.

Last reported at 2018-Feb-10 02:14 UTC. Time now 2018-Feb-20 04:23 UTC.
Position N 39°16' W 090°37'.
Warning: this ship's position is 10 days out of date.

Length 44 m; draft 3 m.

Type: Tow > 200 m length. MMSI: 367129650.

Date/timePositionNaut miles runAvg speedWind from/ knotsBaromVisibWave heightAir tempDewpointWater temp
2018-Feb-10 02:14N 39°16' W 090°37'4 3.7
2018-Feb-10 01:06N 39°12' W 090°36'1 3.6
2018-Feb-10 00:52N 39°11' W 090°36'3 4.0
2018-Feb-10 00:14N 39°08' W 090°37'1 4.2
2018-Feb-09 23:59N 39°07' W 090°36'2 4.1
2018-Feb-09 23:29N 39°05' W 090°36'3 3.7
2018-Feb-09 22:45N 39°03' W 090°35'3 4.0
2018-Feb-09 22:00N 38°60' W 090°34'2 2.0
2018-Feb-09 21:00N 38°58' W 090°33'0 0.1
2018-Feb-09 20:00N 38°58' W 090°33'6 3.8
2018-Feb-09 18:30N 38°58' W 090°25'5 4.7
2018-Feb-09 17:30N 38°56' W 090°20'2 4.8
2018-Feb-09 17:00N 38°55' W 090°17'2 4.7
2018-Feb-09 16:30N 38°55' W 090°14'5 4.6
2018-Feb-09 15:30N 38°52' W 090°09'0 0.1
2018-Feb-09 14:30N 38°52' W 090°09'0 0.2
2018-Feb-09 14:00N 38°52' W 090°09'0 0.0
2018-Feb-09 12:30N 38°52' W 090°09'0 0.1
2018-Feb-09 12:00N 38°52' W 090°09'0 0.3
2018-Feb-09 11:30N 38°52' W 090°09'0 0.4
2018-Feb-09 11:00N 38°52' W 090°09'0 0.1
2018-Feb-09 10:30N 38°52' W 090°09'0 0.1
2018-Feb-09 08:00N 38°52' W 090°09'0 0.2
2018-Feb-09 07:30N 38°52' W 090°09'0 0.0
2018-Feb-09 07:00N 38°52' W 090°09'0 0.0
2018-Feb-09 06:30N 38°52' W 090°09'0 0.0
2018-Feb-09 03:30N 38°52' W 090°09'0 0.2
2018-Feb-09 02:30N 38°52' W 090°09'0 0.2
2018-Feb-09 01:30N 38°52' W 090°09'0 0.1
2018-Feb-09 01:00N 38°52' W 090°09'1 1.4
2018-Feb-09 00:00N 38°51' W 090°07'2 3.1
2018-Feb-08 23:30N 38°50' W 090°07'0 0.9
2018-Feb-08 23:00N 38°49' W 090°07'14 2.1
2018-Feb-08 16:00N 38°36' W 090°12'0 0.0
2018-Feb-08 15:00N 38°36' W 090°12'4 0.6
2018-Feb-08 08:30N 38°33' W 090°15'  
2018-Feb-05 18:34N 38°31' W 090°16'5 2.8
2018-Feb-05 16:42N 38°35' W 090°12'0 0.1
2018-Feb-05 16:24N 38°35' W 090°12'0 0.1
2018-Feb-05 15:06N 38°36' W 090°12'0 0.1
2018-Feb-05 14:58N 38°36' W 090°12'0 0.6
2018-Feb-05 14:29N 38°36' W 090°12'6 3.9
2018-Feb-05 12:51N 38°42' W 090°11'0 0.6
2018-Feb-05 12:00N 38°43' W 090°11'1 1.1
2018-Feb-05 11:30N 38°43' W 090°10'2 2.3
2018-Feb-05 10:28N 38°45' W 090°09'6 3.8
2018-Feb-05 08:59N 38°50' W 090°06'2 4.5
2018-Feb-05 08:30N 38°52' W 090°08'0 0.8
2018-Feb-05 08:00N 38°52' W 090°09'0 0.3
2018-Feb-05 07:30N 38°52' W 090°09'0 0.2
2018-Feb-05 07:00N 38°52' W 090°09'0 0.0
2018-Feb-05 06:30N 38°52' W 090°09'1 0.8
2018-Feb-05 05:30N 38°53' W 090°10'2 3.1
2018-Feb-05 05:00N 38°53' W 090°12'1 2.9
2018-Feb-05 04:30N 38°54' W 090°13'0 0.1
2018-Feb-05 04:00N 38°54' W 090°13'0 0.1
2018-Feb-05 03:30N 38°55' W 090°13'0 0.1
2018-Feb-05 03:00N 38°55' W 090°13'0 0.0
2018-Feb-05 02:30N 38°55' W 090°13'0 0.0
2018-Feb-05 02:00N 38°55' W 090°13'0 0.0
2018-Feb-05 01:30N 38°55' W 090°13'0 0.2
2018-Feb-05 01:00N 38°55' W 090°13'1 3.0
2018-Feb-05 00:30N 38°55' W 090°15'3 5.0
2018-Feb-05 00:00N 38°55' W 090°18'3 5.0
2018-Feb-04 23:30N 38°57' W 090°21'3 5.3
2018-Feb-04 23:00N 38°58' W 090°24'3 5.4
2018-Feb-04 22:30N 38°58' W 090°27'2 4.6
2018-Feb-04 22:00N 38°58' W 090°30'2 4.0
2018-Feb-04 21:30N 38°58' W 090°33'2 4.9
2018-Feb-04 21:00N 39°00' W 090°34'5 4.2
2018-Feb-04 19:56N 39°05' W 090°35'2 5.0
2018-Feb-04 19:29N 39°07' W 090°36'  

Dump ship's entire track history